sensor_id;sensor_type;location;lat;lon;timestamp;temperature;humidity
68248;SHT30;55064;49.636;12.164;2022-11-20T00:01:25;-1.03;95.90
68248;SHT30;55064;49.636;12.164;2022-11-20T00:03:52;-1.01;95.65
68248;SHT30;55064;49.636;12.164;2022-11-20T00:06:19;-1.06;95.98
68248;SHT30;55064;49.636;12.164;2022-11-20T00:08:45;-1.07;96.17
68248;SHT30;55064;49.636;12.164;2022-11-20T00:13:40;-1.07;96.08
68248;SHT30;55064;49.636;12.164;2022-11-20T00:16:08;-1.00;95.95
68248;SHT30;55064;49.636;12.164;2022-11-20T00:18:34;-0.97;95.70
68248;SHT30;55064;49.636;12.164;2022-11-20T00:21:04;-1.03;95.59
68248;SHT30;55064;49.636;12.164;2022-11-20T00:23:34;-1.14;96.29
68248;SHT30;55064;49.636;12.164;2022-11-20T00:26:04;-1.14;96.35
68248;SHT30;55064;49.636;12.164;2022-11-20T00:28:30;-1.13;96.69
68248;SHT30;55064;49.636;12.164;2022-11-20T00:31:14;-1.16;96.62
68248;SHT30;55064;49.636;12.164;2022-11-20T00:33:41;-1.10;96.35
68248;SHT30;55064;49.636;12.164;2022-11-20T00:36:09;-1.07;95.58
68248;SHT30;55064;49.636;12.164;2022-11-20T00:38:35;-1.06;95.51
68248;SHT30;55064;49.636;12.164;2022-11-20T00:41:04;-1.07;95.08
68248;SHT30;55064;49.636;12.164;2022-11-20T00:43:33;-1.14;95.52
68248;SHT30;55064;49.636;12.164;2022-11-20T00:46:00;-1.21;95.86
68248;SHT30;55064;49.636;12.164;2022-11-20T00:48:26;-1.11;95.51
68248;SHT30;55064;49.636;12.164;2022-11-20T00:50:54;-1.11;95.43
68248;SHT30;55064;49.636;12.164;2022-11-20T00:53:20;-1.14;95.62
68248;SHT30;55064;49.636;12.164;2022-11-20T00:55:55;-1.21;96.42
68248;SHT30;55064;49.636;12.164;2022-11-20T00:58:22;-1.24;96.56
68248;SHT30;55064;49.636;12.164;2022-11-20T01:00:48;-1.24;96.87
68248;SHT30;55064;49.636;12.164;2022-11-20T01:03:15;-1.26;97.17
68248;SHT30;55064;49.636;12.164;2022-11-20T01:05:40;-1.24;96.98
68248;SHT30;55064;49.636;12.164;2022-11-20T01:08:06;-1.24;96.86
68248;SHT30;55064;49.636;12.164;2022-11-20T01:10:31;-1.20;96.80
68248;SHT30;55064;49.636;12.164;2022-11-20T01:12:56;-1.19;97.12
68248;SHT30;55064;49.636;12.164;2022-11-20T01:15:42;-1.17;96.51
68248;SHT30;55064;49.636;12.164;2022-11-20T01:18:08;-1.14;95.90
68248;SHT30;55064;49.636;12.164;2022-11-20T01:20:37;-1.16;95.38
68248;SHT30;55064;49.636;12.164;2022-11-20T01:23:05;-1.21;95.92
68248;SHT30;55064;49.636;12.164;2022-11-20T01:25:34;-1.17;95.51
68248;SHT30;55064;49.636;12.164;2022-11-20T01:28:02;-1.20;95.92
68248;SHT30;55064;49.636;12.164;2022-11-20T01:30:28;-1.20;96.45
68248;SHT30;55064;49.636;12.164;2022-11-20T01:32:56;-1.13;95.98
68248;SHT30;55064;49.636;12.164;2022-11-20T01:35:23;-1.16;95.14
68248;SHT30;55064;49.636;12.164;2022-11-20T01:37:51;-1.20;95.38
68248;SHT30;55064;49.636;12.164;2022-11-20T01:40:16;-1.21;95.76
68248;SHT30;55064;49.636;12.164;2022-11-20T01:42:47;-1.24;95.57
68248;SHT30;55064;49.636;12.164;2022-11-20T01:48:23;-1.19;96.39
68248;SHT30;55064;49.636;12.164;2022-11-20T01:50:53;-1.19;96.34
68248;SHT30;55064;49.636;12.164;2022-11-20T01:53:25;-1.10;95.97
68248;SHT30;55064;49.636;12.164;2022-11-20T01:55:56;-1.11;96.12
68248;SHT30;55064;49.636;12.164;2022-11-20T01:58:27;-1.11;96.54
68248;SHT30;55064;49.636;12.164;2022-11-20T02:00:53;-1.10;96.38
68248;SHT30;55064;49.636;12.164;2022-11-20T02:03:23;-1.10;96.14
68248;SHT30;55064;49.636;12.164;2022-11-20T02:08:21;-1.09;95.87
68248;SHT30;55064;49.636;12.164;2022-11-20T02:10:48;-1.09;96.05
68248;SHT30;55064;49.636;12.164;2022-11-20T02:13:13;-1.11;96.13
68248;SHT30;55064;49.636;12.164;2022-11-20T02:16:23;-1.14;96.53
68248;SHT30;55064;49.636;12.164;2022-11-20T02:18:53;-1.09;96.35
68248;SHT30;55064;49.636;12.164;2022-11-20T02:21:34;-1.09;96.49
68248;SHT30;55064;49.636;12.164;2022-11-20T02:26:39;-1.11;96.79
68248;SHT30;55064;49.636;12.164;2022-11-20T02:29:06;-1.13;96.25
68248;SHT30;55064;49.636;12.164;2022-11-20T02:31:40;-1.11;96.48
68248;SHT30;55064;49.636;12.164;2022-11-20T02:34:06;-1.10;96.90
68248;SHT30;55064;49.636;12.164;2022-11-20T02:36:38;-1.06;96.81
68248;SHT30;55064;49.636;12.164;2022-11-20T02:39:09;-1.06;96.65
68248;SHT30;55064;49.636;12.164;2022-11-20T02:41:38;-1.03;96.89
68248;SHT30;55064;49.636;12.164;2022-11-20T02:44:05;-1.01;96.81
68248;SHT30;55064;49.636;12.164;2022-11-20T02:46:31;-1.00;96.66
68248;SHT30;55064;49.636;12.164;2022-11-20T02:48:57;-0.97;96.06
68248;SHT30;55064;49.636;12.164;2022-11-20T02:51:22;-0.99;95.76
68248;SHT30;55064;49.636;12.164;2022-11-20T02:53:50;-1.06;95.77
68248;SHT30;55064;49.636;12.164;2022-11-20T02:56:16;-1.21;96.46
68248;SHT30;55064;49.636;12.164;2022-11-20T02:58:41;-1.20;96.86
68248;SHT30;55064;49.636;12.164;2022-11-20T03:01:09;-1.13;97.62
68248;SHT30;55064;49.636;12.164;2022-11-20T03:03:34;-1.14;97.66
68248;SHT30;55064;49.636;12.164;2022-11-20T03:06:02;-1.10;97.35
68248;SHT30;55064;49.636;12.164;2022-11-20T03:08:28;-1.10;97.31
68248;SHT30;55064;49.636;12.164;2022-11-20T03:10:53;-1.09;97.46
68248;SHT30;55064;49.636;12.164;2022-11-20T03:13:21;-1.07;97.36
68248;SHT30;55064;49.636;12.164;2022-11-20T03:15:48;-1.06;97.28
68248;SHT30;55064;49.636;12.164;2022-11-20T03:18:14;-1.07;97.33
68248;SHT30;55064;49.636;12.164;2022-11-20T03:20:42;-1.04;97.46
68248;SHT30;55064;49.636;12.164;2022-11-20T03:23:10;-1.03;97.29
68248;SHT30;55064;49.636;12.164;2022-11-20T03:25:35;-0.95;97.06
68248;SHT30;55064;49.636;12.164;2022-11-20T03:28:03;-0.96;97.32
68248;SHT30;55064;49.636;12.164;2022-11-20T03:30:29;-0.93;96.72
68248;SHT30;55064;49.636;12.164;2022-11-20T03:32:57;-0.92;96.53
68248;SHT30;55064;49.636;12.164;2022-11-20T03:35:22;-1.00;96.68
68248;SHT30;55064;49.636;12.164;2022-11-20T03:37:53;-1.07;96.93
68248;SHT30;55064;49.636;12.164;2022-11-20T03:40:18;-1.04;96.89
68248;SHT30;55064;49.636;12.164;2022-11-20T03:42:43;-1.03;96.74
68248;SHT30;55064;49.636;12.164;2022-11-20T03:45:18;-1.04;96.67
68248;SHT30;55064;49.636;12.164;2022-11-20T03:47:46;-1.07;97.17
68248;SHT30;55064;49.636;12.164;2022-11-20T03:50:12;-1.06;97.36
68248;SHT30;55064;49.636;12.164;2022-11-20T03:52:39;-1.03;97.06
68248;SHT30;55064;49.636;12.164;2022-11-20T03:55:09;-1.00;96.93
68248;SHT30;55064;49.636;12.164;2022-11-20T03:57:35;-0.93;96.93
68248;SHT30;55064;49.636;12.164;2022-11-20T04:00:00;-0.90;97.48
68248;SHT30;55064;49.636;12.164;2022-11-20T04:02:29;-0.85;97.24
68248;SHT30;55064;49.636;12.164;2022-11-20T04:04:56;-0.86;97.33
68248;SHT30;55064;49.636;12.164;2022-11-20T04:07:22;-0.88;97.31
68248;SHT30;55064;49.636;12.164;2022-11-20T04:09:49;-0.85;97.19
68248;SHT30;55064;49.636;12.164;2022-11-20T04:12:15;-0.79;96.68
68248;SHT30;55064;49.636;12.164;2022-11-20T04:14:40;-0.81;96.40
68248;SHT30;55064;49.636;12.164;2022-11-20T04:17:08;-0.79;96.20
68248;SHT30;55064;49.636;12.164;2022-11-20T04:19:33;-0.88;96.33
68248;SHT30;55064;49.636;12.164;2022-11-20T04:21:58;-0.90;96.51
68248;SHT30;55064;49.636;12.164;2022-11-20T04:24:24;-0.92;97.27
68248;SHT30;55064;49.636;12.164;2022-11-20T04:26:51;-0.92;97.52
68248;SHT30;55064;49.636;12.164;2022-11-20T04:29:17;-0.90;97.78
68248;SHT30;55064;49.636;12.164;2022-11-20T04:31:42;-0.93;97.78
68248;SHT30;55064;49.636;12.164;2022-11-20T04:34:10;-0.90;97.53
68248;SHT30;55064;49.636;12.164;2022-11-20T04:36:37;-0.85;98.04
68248;SHT30;55064;49.636;12.164;2022-11-20T04:39:04;-0.83;97.47
68248;SHT30;55064;49.636;12.164;2022-11-20T04:41:35;-0.82;97.43
68248;SHT30;55064;49.636;12.164;2022-11-20T04:44:03;-0.78;97.30
68248;SHT30;55064;49.636;12.164;2022-11-20T04:46:30;-0.75;97.44
68248;SHT30;55064;49.636;12.164;2022-11-20T04:48:56;-0.69;97.39
68248;SHT30;55064;49.636;12.164;2022-11-20T04:51:22;-0.73;97.20
68248;SHT30;55064;49.636;12.164;2022-11-20T04:53:48;-0.81;97.15
68248;SHT30;55064;49.636;12.164;2022-11-20T04:56:14;-0.83;97.43
68248;SHT30;55064;49.636;12.164;2022-11-20T04:58:42;-0.83;97.61
68248;SHT30;55064;49.636;12.164;2022-11-20T05:01:20;-0.81;97.69
68248;SHT30;55064;49.636;12.164;2022-11-20T05:03:46;-0.76;97.42
68248;SHT30;55064;49.636;12.164;2022-11-20T05:06:15;-0.82;97.28
68248;SHT30;55064;49.636;12.164;2022-11-20T05:08:41;-0.85;97.46
68248;SHT30;55064;49.636;12.164;2022-11-20T05:11:11;-0.81;97.55
68248;SHT30;55064;49.636;12.164;2022-11-20T05:13:38;-0.73;97.47
68248;SHT30;55064;49.636;12.164;2022-11-20T05:16:07;-0.76;97.21
68248;SHT30;55064;49.636;12.164;2022-11-20T05:18:33;-0.76;96.92
68248;SHT30;55064;49.636;12.164;2022-11-20T05:20:59;-0.75;97.04
68248;SHT30;55064;49.636;12.164;2022-11-20T05:23:25;-0.73;97.09
68248;SHT30;55064;49.636;12.164;2022-11-20T05:25:52;-0.75;97.37
68248;SHT30;55064;49.636;12.164;2022-11-20T05:28:18;-0.75;97.43
68248;SHT30;55064;49.636;12.164;2022-11-20T05:30:44;-0.76;97.67
68248;SHT30;55064;49.636;12.164;2022-11-20T05:33:09;-0.72;97.90
68248;SHT30;55064;49.636;12.164;2022-11-20T05:35:34;-0.69;97.94
68248;SHT30;55064;49.636;12.164;2022-11-20T05:38:02;-0.65;97.68
68248;SHT30;55064;49.636;12.164;2022-11-20T05:40:28;-0.65;97.62
68248;SHT30;55064;49.636;12.164;2022-11-20T05:42:53;-0.58;97.68
68248;SHT30;55064;49.636;12.164;2022-11-20T05:45:18;-0.66;97.44
68248;SHT30;55064;49.636;12.164;2022-11-20T05:47:45;-0.71;97.77
68248;SHT30;55064;49.636;12.164;2022-11-20T05:50:10;-0.64;97.52
68248;SHT30;55064;49.636;12.164;2022-11-20T05:52:35;-0.68;97.79
68248;SHT30;55064;49.636;12.164;2022-11-20T05:55:01;-0.65;97.86
68248;SHT30;55064;49.636;12.164;2022-11-20T05:57:26;-0.72;97.17
68248;SHT30;55064;49.636;12.164;2022-11-20T05:59:52;-0.68;97.57
68248;SHT30;55064;49.636;12.164;2022-11-20T06:02:19;-0.73;97.54
68248;SHT30;55064;49.636;12.164;2022-11-20T06:04:45;-0.73;97.75
68248;SHT30;55064;49.636;12.164;2022-11-20T06:07:12;-0.73;97.80
68248;SHT30;55064;49.636;12.164;2022-11-20T06:09:41;-0.73;97.71
68248;SHT30;55064;49.636;12.164;2022-11-20T06:12:08;-0.71;97.84
68248;SHT30;55064;49.636;12.164;2022-11-20T06:14:34;-0.71;97.92
68248;SHT30;55064;49.636;12.164;2022-11-20T06:16:59;-0.66;97.80
68248;SHT30;55064;49.636;12.164;2022-11-20T06:19:24;-0.64;97.89
68248;SHT30;55064;49.636;12.164;2022-11-20T06:21:52;-0.71;97.72
68248;SHT30;55064;49.636;12.164;2022-11-20T06:24:18;-0.68;98.05
68248;SHT30;55064;49.636;12.164;2022-11-20T06:26:43;-0.68;98.25
68248;SHT30;55064;49.636;12.164;2022-11-20T06:29:11;-0.61;98.31
68248;SHT30;55064;49.636;12.164;2022-11-20T06:31:42;-0.62;98.40
68248;SHT30;55064;49.636;12.164;2022-11-20T06:34:08;-0.55;98.19
68248;SHT30;55064;49.636;12.164;2022-11-20T06:36:33;-0.57;98.08
68248;SHT30;55064;49.636;12.164;2022-11-20T06:39:03;-0.55;98.00
68248;SHT30;55064;49.636;12.164;2022-11-20T06:41:31;-0.51;97.99
68248;SHT30;55064;49.636;12.164;2022-11-20T06:43:56;-0.50;97.80
68248;SHT30;55064;49.636;12.164;2022-11-20T06:46:22;-0.54;97.98
68248;SHT30;55064;49.636;12.164;2022-11-20T06:48:48;-0.54;98.28
68248;SHT30;55064;49.636;12.164;2022-11-20T06:51:14;-0.52;98.28
68248;SHT30;55064;49.636;12.164;2022-11-20T06:53:39;-0.47;98.42
68248;SHT30;55064;49.636;12.164;2022-11-20T06:56:05;-0.45;98.35
68248;SHT30;55064;49.636;12.164;2022-11-20T06:58:32;-0.38;98.49
68248;SHT30;55064;49.636;12.164;2022-11-20T07:01:11;-0.37;98.20
68248;SHT30;55064;49.636;12.164;2022-11-20T07:03:37;-0.40;98.15
68248;SHT30;55064;49.636;12.164;2022-11-20T07:06:05;-0.41;98.11
68248;SHT30;55064;49.636;12.164;2022-11-20T07:08:34;-0.47;98.58
68248;SHT30;55064;49.636;12.164;2022-11-20T07:11:01;-0.44;98.29
68248;SHT30;55064;49.636;12.164;2022-11-20T07:13:27;-0.40;98.55
68248;SHT30;55064;49.636;12.164;2022-11-20T07:15:53;-0.37;98.54
68248;SHT30;55064;49.636;12.164;2022-11-20T07:18:19;-0.34;98.76
68248;SHT30;55064;49.636;12.164;2022-11-20T07:20:44;-0.30;98.63
68248;SHT30;55064;49.636;12.164;2022-11-20T07:23:14;-0.28;98.69
68248;SHT30;55064;49.636;12.164;2022-11-20T07:25:40;-0.26;98.65
68248;SHT30;55064;49.636;12.164;2022-11-20T07:28:06;-0.26;98.43
68248;SHT30;55064;49.636;12.164;2022-11-20T07:30:31;-0.23;98.25
68248;SHT30;55064;49.636;12.164;2022-11-20T07:33:01;-0.17;98.07
68248;SHT30;55064;49.636;12.164;2022-11-20T07:35:27;-0.16;98.05
68248;SHT30;55064;49.636;12.164;2022-11-20T07:37:52;-0.14;98.06
68248;SHT30;55064;49.636;12.164;2022-11-20T07:40:18;-0.10;98.27
68248;SHT30;55064;49.636;12.164;2022-11-20T07:42:54;-0.09;98.11
68248;SHT30;55064;49.636;12.164;2022-11-20T07:45:24;-0.10;98.28
68248;SHT30;55064;49.636;12.164;2022-11-20T07:47:51;-0.13;97.92
68248;SHT30;55064;49.636;12.164;2022-11-20T07:50:17;-0.11;97.88
68248;SHT30;55064;49.636;12.164;2022-11-20T07:57:55;0.10;98.17
68248;SHT30;55064;49.636;12.164;2022-11-20T08:00:22;0.03;98.28
68248;SHT30;55064;49.636;12.164;2022-11-20T08:02:48;-0.02;98.68
68248;SHT30;55064;49.636;12.164;2022-11-20T08:05:13;0.11;98.34
68248;SHT30;55064;49.636;12.164;2022-11-20T08:07:40;0.11;97.63
68248;SHT30;55064;49.636;12.164;2022-11-20T08:10:08;-0.09;98.93
68248;SHT30;55064;49.636;12.164;2022-11-20T08:12:33;-0.10;99.33
68248;SHT30;55064;49.636;12.164;2022-11-20T08:15:20;-0.06;99.21
68248;SHT30;55064;49.636;12.164;2022-11-20T08:17:51;0.01;99.04
68248;SHT30;55064;49.636;12.164;2022-11-20T08:20:17;0.04;99.02
68248;SHT30;55064;49.636;12.164;2022-11-20T08:22:45;0.11;98.74
68248;SHT30;55064;49.636;12.164;2022-11-20T08:25:15;0.17;98.90
68248;SHT30;55064;49.636;12.164;2022-11-20T08:27:41;0.15;98.88
68248;SHT30;55064;49.636;12.164;2022-11-20T08:30:07;0.21;98.87
68248;SHT30;55064;49.636;12.164;2022-11-20T08:32:33;0.22;98.75
68248;SHT30;55064;49.636;12.164;2022-11-20T08:35:01;0.17;98.91
68248;SHT30;55064;49.636;12.164;2022-11-20T08:37:27;0.18;98.81
68248;SHT30;55064;49.636;12.164;2022-11-20T08:39:55;0.17;98.98
68248;SHT30;55064;49.636;12.164;2022-11-20T08:42:22;0.18;98.83
68248;SHT30;55064;49.636;12.164;2022-11-20T08:44:53;0.19;99.17
68248;SHT30;55064;49.636;12.164;2022-11-20T08:47:24;0.25;98.81
68248;SHT30;55064;49.636;12.164;2022-11-20T08:49:51;0.29;98.78
68248;SHT30;55064;49.636;12.164;2022-11-20T08:52:19;0.32;98.76
68248;SHT30;55064;49.636;12.164;2022-11-20T08:54:44;0.35;98.87
68248;SHT30;55064;49.636;12.164;2022-11-20T08:57:10;0.31;98.97
68248;SHT30;55064;49.636;12.164;2022-11-20T08:59:35;0.38;98.84
68248;SHT30;55064;49.636;12.164;2022-11-20T09:02:01;0.37;99.18
68248;SHT30;55064;49.636;12.164;2022-11-20T09:04:26;0.33;99.58
68248;SHT30;55064;49.636;12.164;2022-11-20T09:06:54;0.38;99.75
68248;SHT30;55064;49.636;12.164;2022-11-20T09:09:22;0.42;99.64
68248;SHT30;55064;49.636;12.164;2022-11-20T09:11:49;0.45;99.57
68248;SHT30;55064;49.636;12.164;2022-11-20T09:14:15;0.45;99.80
68248;SHT30;55064;49.636;12.164;2022-11-20T09:16:44;0.42;99.98
68248;SHT30;55064;49.636;12.164;2022-11-20T09:19:09;0.39;99.99
68248;SHT30;55064;49.636;12.164;2022-11-20T09:21:35;0.45;99.99
68248;SHT30;55064;49.636;12.164;2022-11-20T09:24:02;0.53;99.95
68248;SHT30;55064;49.636;12.164;2022-11-20T09:26:29;0.59;99.99
68248;SHT30;55064;49.636;12.164;2022-11-20T09:28:54;0.59;99.97
68248;SHT30;55064;49.636;12.164;2022-11-20T09:31:24;0.52;99.99
68248;SHT30;55064;49.636;12.164;2022-11-20T09:33:51;0.50;99.99
68248;SHT30;55064;49.636;12.164;2022-11-20T09:36:17;0.55;99.99
68248;SHT30;55064;49.636;12.164;2022-11-20T09:38:47;0.59;99.99
68248;SHT30;55064;49.636;12.164;2022-11-20T09:44:24;0.63;99.99
68248;SHT30;55064;49.636;12.164;2022-11-20T09:50:00;0.62;99.99
68248;SHT30;55064;49.636;12.164;2022-11-20T09:55:02;0.70;99.99
68248;SHT30;55064;49.636;12.164;2022-11-20T09:57:36;0.75;99.99
68248;SHT30;55064;49.636;12.164;2022-11-20T10:00:04;0.79;99.99
68248;SHT30;55064;49.636;12.164;2022-11-20T10:02:37;0.84;99.99
68248;SHT30;55064;49.636;12.164;2022-11-20T10:05:27;0.87;99.99
68248;SHT30;55064;49.636;12.164;2022-11-20T10:08:11;0.87;99.99
68248;SHT30;55064;49.636;12.164;2022-11-20T10:10:46;0.94;99.99
68248;SHT30;55064;49.636;12.164;2022-11-20T10:13:27;0.94;99.99
68248;SHT30;55064;49.636;12.164;2022-11-20T10:16:10;0.96;99.99
68248;SHT30;55064;49.636;12.164;2022-11-20T10:29:48;0.96;99.99
68248;SHT30;55064;49.636;12.164;2022-11-20T10:32:20;0.87;99.99
68248;SHT30;55064;49.636;12.164;2022-11-20T10:37:25;0.76;99.99
68248;SHT30;55064;49.636;12.164;2022-11-20T10:40:01;0.84;99.99
68248;SHT30;55064;49.636;12.164;2022-11-20T10:47:44;0.84;99.99
68248;SHT30;55064;49.636;12.164;2022-11-20T10:50:15;0.86;99.99
68248;SHT30;55064;49.636;12.164;2022-11-20T11:01:15;0.79;99.99
68248;SHT30;55064;49.636;12.164;2022-11-20T11:03:44;0.79;99.99
68248;SHT30;55064;49.636;12.164;2022-11-20T11:08:53;0.65;99.99
68248;SHT30;55064;49.636;12.164;2022-11-20T11:13:44;0.72;99.99
68248;SHT30;55064;49.636;12.164;2022-11-20T11:16:23;0.76;99.99
68248;SHT30;55064;49.636;12.164;2022-11-20T11:19:02;0.73;99.99
68248;SHT30;55064;49.636;12.164;2022-11-20T11:21:30;0.73;99.99
68248;SHT30;55064;49.636;12.164;2022-11-20T11:24:03;0.81;99.99
68248;SHT30;55064;49.636;12.164;2022-11-20T11:26:29;0.88;99.99
68248;SHT30;55064;49.636;12.164;2022-11-20T11:28:59;0.94;99.99
68248;SHT30;55064;49.636;12.164;2022-11-20T11:31:33;0.98;99.99
68248;SHT30;55064;49.636;12.164;2022-11-20T11:36:33;1.00;99.99
68248;SHT30;55064;49.636;12.164;2022-11-20T11:39:00;1.00;99.99
68248;SHT30;55064;49.636;12.164;2022-11-20T11:41:30;1.01;99.99
68248;SHT30;55064;49.636;12.164;2022-11-20T11:44:01;1.01;99.99
68248;SHT30;55064;49.636;12.164;2022-11-20T11:46:53;1.01;99.99
68248;SHT30;55064;49.636;12.164;2022-11-20T11:49:19;1.07;99.99
68248;SHT30;55064;49.636;12.164;2022-11-20T11:57:33;1.24;99.99
68248;SHT30;55064;49.636;12.164;2022-11-20T12:00:09;1.18;99.99
68248;SHT30;55064;49.636;12.164;2022-11-20T12:07:42;1.18;99.99
68248;SHT30;55064;49.636;12.164;2022-11-20T12:15:53;1.25;99.99
68248;SHT30;55064;49.636;12.164;2022-11-20T12:18:21;1.20;99.99
68248;SHT30;55064;49.636;12.164;2022-11-20T12:21:31;1.14;99.99
68248;SHT30;55064;49.636;12.164;2022-11-20T12:24:28;1.14;99.99
68248;SHT30;55064;49.636;12.164;2022-11-20T12:41:13;1.42;99.99
68248;SHT30;55064;49.636;12.164;2022-11-20T12:44:24;1.51;99.99
68248;SHT30;55064;49.636;12.164;2022-11-20T12:47:40;1.55;99.99
68248;SHT30;55064;49.636;12.164;2022-11-20T12:50:37;1.53;99.99
68248;SHT30;55064;49.636;12.164;2022-11-20T12:53:24;1.69;99.99
68248;SHT30;55064;49.636;12.164;2022-11-20T12:55:59;1.70;99.77
68248;SHT30;55064;49.636;12.164;2022-11-20T12:58:35;1.88;99.57
68248;SHT30;55064;49.636;12.164;2022-11-20T13:06:53;1.98;99.23
68248;SHT30;55064;49.636;12.164;2022-11-20T13:09:20;1.96;99.52
68248;SHT30;55064;49.636;12.164;2022-11-20T13:18:02;1.81;99.44
68248;SHT30;55064;49.636;12.164;2022-11-20T13:20:32;1.79;99.53
68248;SHT30;55064;49.636;12.164;2022-11-20T13:22:58;1.80;99.42
68248;SHT30;55064;49.636;12.164;2022-11-20T13:25:25;1.77;99.55
68248;SHT30;55064;49.636;12.164;2022-11-20T13:27:54;1.79;99.53
68248;SHT30;55064;49.636;12.164;2022-11-20T13:30:26;1.81;99.46
68248;SHT30;55064;49.636;12.164;2022-11-20T13:35:34;1.87;99.34
68248;SHT30;55064;49.636;12.164;2022-11-20T13:38:15;1.83;99.48
68248;SHT30;55064;49.636;12.164;2022-11-20T13:43:47;1.86;99.35
68248;SHT30;55064;49.636;12.164;2022-11-20T13:46:13;1.88;99.30
68248;SHT30;55064;49.636;12.164;2022-11-20T13:48:45;1.94;99.43
68248;SHT30;55064;49.636;12.164;2022-11-20T13:51:37;1.93;99.36
68248;SHT30;55064;49.636;12.164;2022-11-20T13:57:21;2.04;99.02
68248;SHT30;55064;49.636;12.164;2022-11-20T14:00:20;2.01;98.93
68248;SHT30;55064;49.636;12.164;2022-11-20T14:03:14;2.06;99.08
68248;SHT30;55064;49.636;12.164;2022-11-20T14:05:56;1.98;99.17
68248;SHT30;55064;49.636;12.164;2022-11-20T14:11:15;1.94;99.05
68248;SHT30;55064;49.636;12.164;2022-11-20T14:14:10;1.94;99.14
68248;SHT30;55064;49.636;12.164;2022-11-20T14:16:36;1.90;99.27
68248;SHT30;55064;49.636;12.164;2022-11-20T14:22:36;1.88;99.57
68248;SHT30;55064;49.636;12.164;2022-11-20T14:24:37;1.90;99.54
68248;SHT30;55064;49.636;12.164;2022-11-20T14:27:02;1.87;99.79
68248;SHT30;55064;49.636;12.164;2022-11-20T14:29:54;1.83;99.91
68248;SHT30;55064;49.636;12.164;2022-11-20T14:32:30;1.86;99.80
68248;SHT30;55064;49.636;12.164;2022-11-20T14:35:00;1.83;99.82
68248;SHT30;55064;49.636;12.164;2022-11-20T14:37:41;1.84;99.98
68248;SHT30;55064;49.636;12.164;2022-11-20T14:40:33;1.84;99.99
68248;SHT30;55064;49.636;12.164;2022-11-20T14:46:06;1.84;99.99
68248;SHT30;55064;49.636;12.164;2022-11-20T14:48:41;1.80;99.99
68248;SHT30;55064;49.636;12.164;2022-11-20T14:51:32;1.83;99.99
68248;SHT30;55064;49.636;12.164;2022-11-20T14:54:12;1.79;99.96
68248;SHT30;55064;49.636;12.164;2022-11-20T14:56:39;1.76;99.99
68248;SHT30;55064;49.636;12.164;2022-11-20T14:59:04;1.76;99.99
68248;SHT30;55064;49.636;12.164;2022-11-20T15:01:32;1.73;99.99
68248;SHT30;55064;49.636;12.164;2022-11-20T15:04:05;1.73;99.99
68248;SHT30;55064;49.636;12.164;2022-11-20T15:06:31;1.76;99.99
68248;SHT30;55064;49.636;12.164;2022-11-20T15:08:58;1.74;99.99
68248;SHT30;55064;49.636;12.164;2022-11-20T15:11:33;1.71;99.99
68248;SHT30;55064;49.636;12.164;2022-11-20T15:14:05;1.71;99.99
68248;SHT30;55064;49.636;12.164;2022-11-20T15:16:32;1.71;99.99
68248;SHT30;55064;49.636;12.164;2022-11-20T15:19:02;1.69;99.99
68248;SHT30;55064;49.636;12.164;2022-11-20T15:21:27;1.69;99.99
68248;SHT30;55064;49.636;12.164;2022-11-20T15:23:54;1.71;99.99
68248;SHT30;55064;49.636;12.164;2022-11-20T15:26:24;1.69;99.99
68248;SHT30;55064;49.636;12.164;2022-11-20T15:28:51;1.70;99.99
68248;SHT30;55064;49.636;12.164;2022-11-20T15:31:19;1.71;99.99
68248;SHT30;55064;49.636;12.164;2022-11-20T15:33:45;1.70;99.99
68248;SHT30;55064;49.636;12.164;2022-11-20T15:36:11;1.64;99.99
68248;SHT30;55064;49.636;12.164;2022-11-20T15:38:40;1.66;99.99
68248;SHT30;55064;49.636;12.164;2022-11-20T15:41:10;1.63;99.99
68248;SHT30;55064;49.636;12.164;2022-11-20T15:43:38;1.70;99.99
68248;SHT30;55064;49.636;12.164;2022-11-20T15:48:39;1.67;99.99
68248;SHT30;55064;49.636;12.164;2022-11-20T15:53:37;1.71;99.99
68248;SHT30;55064;49.636;12.164;2022-11-20T15:56:03;1.59;99.99
68248;SHT30;55064;49.636;12.164;2022-11-20T15:58:29;1.45;99.99
68248;SHT30;55064;49.636;12.164;2022-11-20T16:00:54;1.42;99.99
68248;SHT30;55064;49.636;12.164;2022-11-20T16:03:19;1.35;99.99
68248;SHT30;55064;49.636;12.164;2022-11-20T16:05:45;1.34;99.99
68248;SHT30;55064;49.636;12.164;2022-11-20T16:08:11;1.35;99.99
68248;SHT30;55064;49.636;12.164;2022-11-20T16:10:39;1.27;99.99
68248;SHT30;55064;49.636;12.164;2022-11-20T16:13:15;1.31;99.99
68248;SHT30;55064;49.636;12.164;2022-11-20T16:16:02;1.27;99.99
68248;SHT30;55064;49.636;12.164;2022-11-20T16:18:30;1.28;99.99
68248;SHT30;55064;49.636;12.164;2022-11-20T16:21:01;1.31;99.99
68248;SHT30;55064;49.636;12.164;2022-11-20T16:23:29;1.35;99.99
68248;SHT30;55064;49.636;12.164;2022-11-20T16:25:54;1.34;99.99
68248;SHT30;55064;49.636;12.164;2022-11-20T16:28:20;1.34;99.99
68248;SHT30;55064;49.636;12.164;2022-11-20T16:30:50;1.28;99.99
68248;SHT30;55064;49.636;12.164;2022-11-20T16:33:20;1.34;99.99
68248;SHT30;55064;49.636;12.164;2022-11-20T16:35:45;1.30;99.99
68248;SHT30;55064;49.636;12.164;2022-11-20T16:38:11;1.27;99.99
68248;SHT30;55064;49.636;12.164;2022-11-20T16:40:36;1.31;99.99
68248;SHT30;55064;49.636;12.164;2022-11-20T16:43:10;1.32;99.99
68248;SHT30;55064;49.636;12.164;2022-11-20T16:45:42;1.31;99.99
68248;SHT30;55064;49.636;12.164;2022-11-20T16:48:15;1.35;99.99
68248;SHT30;55064;49.636;12.164;2022-11-20T16:50:51;1.36;99.99
68248;SHT30;55064;49.636;12.164;2022-11-20T16:53:18;1.34;99.99
68248;SHT30;55064;49.636;12.164;2022-11-20T16:55:44;1.35;99.99
68248;SHT30;55064;49.636;12.164;2022-11-20T16:58:10;1.38;99.99
68248;SHT30;55064;49.636;12.164;2022-11-20T17:00:39;1.36;99.99
68248;SHT30;55064;49.636;12.164;2022-11-20T17:03:07;1.39;99.99
68248;SHT30;55064;49.636;12.164;2022-11-20T17:05:34;1.39;99.99
68248;SHT30;55064;49.636;12.164;2022-11-20T17:08:02;1.39;99.99
68248;SHT30;55064;49.636;12.164;2022-11-20T17:10:30;1.39;99.99
68248;SHT30;55064;49.636;12.164;2022-11-20T17:12:56;1.35;99.99
68248;SHT30;55064;49.636;12.164;2022-11-20T17:15:21;1.36;99.99
68248;SHT30;55064;49.636;12.164;2022-11-20T17:17:49;1.36;99.99
68248;SHT30;55064;49.636;12.164;2022-11-20T17:20:14;1.43;99.99
68248;SHT30;55064;49.636;12.164;2022-11-20T17:22:42;1.41;99.99
68248;SHT30;55064;49.636;12.164;2022-11-20T17:25:07;1.45;99.99
68248;SHT30;55064;49.636;12.164;2022-11-20T17:27:35;1.41;99.99
68248;SHT30;55064;49.636;12.164;2022-11-20T17:30:00;1.42;99.99
68248;SHT30;55064;49.636;12.164;2022-11-20T17:32:30;1.42;99.99
68248;SHT30;55064;49.636;12.164;2022-11-20T17:35:01;1.48;99.99
68248;SHT30;55064;49.636;12.164;2022-11-20T17:37:28;1.43;99.99
68248;SHT30;55064;49.636;12.164;2022-11-20T17:39:54;1.45;99.99
68248;SHT30;55064;49.636;12.164;2022-11-20T17:42:19;1.49;99.99